Time;durP1;ratioP1;P1;durP2;ratioP2;P2;SDS_P1;SDS_P2;PMS_P1;PMS_P2;Temp;Humidity;BMP_temperature;BMP_pressure;BME280_temperature;BME280_humidity;BME280_pressure;Samples;Min_cycle;Max_cycle;Signal;HPM_P1;HPM_P2
2022/11/26 00:00:17;;;;;;;21.33;7.93;;;;;;;;;;5002312;28;20522;-87
2022/11/26 00:02:48;;;;;;;20.52;9.13;;;;;;;;;;4974325;28;20064;-88
2022/11/26 00:05:16;;;;;;;21.52;8.85;;;;;;;;;;4995070;28;20079;-88
2022/11/26 00:07:53;;;;;;;21.63;8.43;;;;;;;;;;5005883;28;20513;-88
2022/11/26 00:10:33;;;;;;;18.02;8.27;;;;;;;;;;4992563;28;20045;-87
2022/11/26 00:13:00;;;;;;;15.48;7.35;;;;;;;;;;4991645;28;20136;-89
2022/11/26 00:15:55;;;;;;;14.25;6.82;;;;;;;;;;5011609;28;20491;-88
2022/11/26 00:18:28;;;;;;;18.88;7.05;;;;;;;;;;4980563;28;20582;-88
2022/11/26 00:20:59;;;;;;;25.67;7.40;;;;;;;;;;4999862;28;20050;-88
2022/11/26 00:23:28;;;;;;;18.55;6.18;;;;;;;;;;4978121;28;20050;-87
2022/11/26 00:26:00;;;;;;;24.33;6.53;;;;;;;;;;5012600;28;20049;-89
2022/11/26 00:28:31;;;;;;;16.13;6.47;;;;;;;;;;5013005;28;20050;-89
2022/11/26 00:31:00;;;;;;;21.35;6.15;;;;;;;;;;4980735;28;20395;-89
2022/11/26 00:33:33;;;;;;;14.40;5.05;;;;;;;;;;5022637;28;20049;-88
2022/11/26 00:36:31;;;;;;;15.63;5.53;;;;;;;;;;5010735;28;20056;-88
2022/11/26 00:41:58;;;;;;;14.65;6.03;;;;;;;;;;5011662;28;20038;-88
2022/11/26 00:44:26;;;;;;;14.27;5.85;;;;;;;;;;5010748;28;20048;-88
2022/11/26 00:46:59;;;;;;;18.77;5.85;;;;;;;;;;5006675;28;20499;-87
2022/11/26 00:49:27;;;;;;;14.40;5.30;;;;;;;;;;4987841;28;20050;-88
2022/11/26 00:51:56;;;;;;;16.48;6.07;;;;;;;;;;5005953;28;20400;-87
2022/11/26 00:54:24;;;;;;;17.02;5.13;;;;;;;;;;5009157;28;20046;-88
2022/11/26 00:56:52;;;;;;;17.10;5.47;;;;;;;;;;5010288;28;20046;-87
2022/11/26 00:59:21;;;;;;;23.83;5.72;;;;;;;;;;5011331;28;20501;-87
2022/11/26 01:01:50;;;;;;;15.68;5.72;;;;;;;;;;5005392;28;20056;-87
2022/11/26 01:04:18;;;;;;;16.63;5.22;;;;;;;;;;4991665;28;20042;-87
2022/11/26 01:06:46;;;;;;;17.88;6.15;;;;;;;;;;4992102;28;20058;-87
2022/11/26 01:09:38;;;;;;;14.10;5.22;;;;;;;;;;5025484;28;20136;-87
2022/11/26 01:12:12;;;;;;;23.80;5.20;;;;;;;;;;4992984;28;20050;-87
2022/11/26 01:14:40;;;;;;;12.88;4.82;;;;;;;;;;5008862;28;20058;-87
2022/11/26 01:17:10;;;;;;;17.65;5.88;;;;;;;;;;5022872;28;20052;-87
2022/11/26 01:19:38;;;;;;;18.83;6.20;;;;;;;;;;5008040;28;20049;-87
2022/11/26 01:22:55;;;;;;;16.08;4.97;;;;;;;;;;5010064;28;20038;-87
2022/11/26 01:25:28;;;;;;;26.30;6.30;;;;;;;;;;5008953;28;20069;-87
2022/11/26 01:28:00;;;;;;;17.98;5.45;;;;;;;;;;5010606;28;20053;-87
2022/11/26 01:30:32;;;;;;;19.15;5.25;;;;;;;;;;5009224;28;20428;-87
2022/11/26 01:33:04;;;;;;;11.32;5.13;;;;;;;;;;5011524;28;20046;-87
2022/11/26 01:35:32;;;;;;;14.07;4.85;;;;;;;;;;5009291;28;20065;-87
2022/11/26 01:38:04;;;;;;;19.85;5.25;;;;;;;;;;5024172;28;20058;-87
2022/11/26 01:40:40;;;;;;;14.18;5.18;;;;;;;;;;5001252;28;20056;-87
2022/11/26 01:43:18;;;;;;;19.60;5.30;;;;;;;;;;5009598;28;20566;-87
2022/11/26 01:45:46;;;;;;;11.50;4.85;;;;;;;;;;5008720;28;20571;-87
2022/11/26 01:48:22;;;;;;;14.50;5.03;;;;;;;;;;5009634;28;20050;-86
2022/11/26 01:50:55;;;;;;;15.73;5.25;;;;;;;;;;5009111;28;20137;-86
2022/11/26 01:53:33;;;;;;;13.95;4.55;;;;;;;;;;5008906;28;20080;-87
2022/11/26 01:56:04;;;;;;;13.30;4.85;;;;;;;;;;4992495;28;20511;-87
2022/11/26 01:58:43;;;;;;;13.95;4.85;;;;;;;;;;5005913;28;20054;-86
2022/11/26 02:01:10;;;;;;;16.77;4.15;;;;;;;;;;5003894;28;20100;-87
2022/11/26 02:04:14;;;;;;;7.55;4.10;;;;;;;;;;5009220;28;20073;-87
2022/11/26 02:07:06;;;;;;;14.50;4.78;;;;;;;;;;5006714;28;20036;-87
2022/11/26 02:09:34;;;;;;;18.02;4.70;;;;;;;;;;4992143;28;20064;-87
2022/11/26 02:12:06;;;;;;;17.08;4.38;;;;;;;;;;5006771;28;20077;-87
2022/11/26 02:14:37;;;;;;;14.27;3.88;;;;;;;;;;5008148;28;20042;-87
2022/11/26 02:17:21;;;;;;;13.02;4.00;;;;;;;;;;4990887;28;20080;-87
2022/11/26 02:20:00;;;;;;;8.48;4.10;;;;;;;;;;5007701;28;20077;-87
2022/11/26 02:22:49;;;;;;;13.07;4.25;;;;;;;;;;5008624;28;20042;-88
2022/11/26 02:25:36;;;;;;;11.85;3.88;;;;;;;;;;5022642;28;20060;-86
2022/11/26 02:28:42;;;;;;;9.90;3.88;;;;;;;;;;5008457;28;20050;-86
2022/11/26 02:31:26;;;;;;;10.50;3.50;;;;;;;;;;4913491;29;20064;-87
2022/11/26 02:34:26;;;;;;;9.13;4.22;;;;;;;;;;4909250;29;20430;-87
2022/11/26 02:37:06;;;;;;;10.68;4.07;;;;;;;;;;4913047;29;20426;-87
2022/11/26 02:39:34;;;;;;;12.10;4.13;;;;;;;;;;4926650;29;20628;-87
2022/11/26 02:42:03;;;;;;;9.13;3.80;;;;;;;;;;4928724;29;20078;-87
2022/11/26 02:44:42;;;;;;;8.25;4.40;;;;;;;;;;4930757;29;20062;-87
2022/11/26 02:47:13;;;;;;;11.50;4.05;;;;;;;;;;4927962;29;20537;-87
2022/11/26 02:49:41;;;;;;;18.25;4.68;;;;;;;;;;4929802;29;20087;-87
2022/11/26 02:52:35;;;;;;;13.25;4.57;;;;;;;;;;4923239;29;20127;-86
2022/11/26 02:55:05;;;;;;;15.43;5.25;;;;;;;;;;4929319;29;20052;-87
2022/11/26 02:57:45;;;;;;;16.20;5.93;;;;;;;;;;4928875;29;20047;-87
2022/11/26 03:00:13;;;;;;;19.80;5.97;;;;;;;;;;4925739;29;20111;-87
2022/11/26 03:03:09;;;;;;;17.05;6.20;;;;;;;;;;4993770;28;20081;-87
2022/11/26 03:05:39;;;;;;;18.08;6.07;;;;;;;;;;5008643;28;20046;-87
2022/11/26 03:08:08;;;;;;;15.10;6.00;;;;;;;;;;5009049;28;20065;-87
2022/11/26 03:10:36;;;;;;;15.77;6.38;;;;;;;;;;5009287;28;20438;-88
2022/11/26 03:13:04;;;;;;;14.25;6.20;;;;;;;;;;5008711;28;20057;-87
2022/11/26 03:15:32;;;;;;;17.02;6.97;;;;;;;;;;4988606;28;20054;-87
2022/11/26 03:18:24;;;;;;;16.85;7.30;;;;;;;;;;5006849;28;20057;-87
2022/11/26 03:21:01;;;;;;;17.20;7.32;;;;;;;;;;5009033;28;20038;-87
2022/11/26 03:23:28;;;;;;;16.88;7.00;;;;;;;;;;5002948;28;20420;-87
2022/11/26 03:25:56;;;;;;;16.58;6.28;;;;;;;;;;5009335;28;20056;-87
2022/11/26 03:28:52;;;;;;;15.95;6.47;;;;;;;;;;4982835;28;20423;-87
2022/11/26 03:31:20;;;;;;;14.15;6.88;;;;;;;;;;5008309;28;20130;-87
2022/11/26 03:33:48;;;;;;;17.77;6.63;;;;;;;;;;5007027;28;20150;-87
2022/11/26 03:36:41;;;;;;;17.27;7.20;;;;;;;;;;5007591;28;20623;-87
2022/11/26 03:39:10;;;;;;;16.38;6.88;;;;;;;;;;4990178;28;20061;-87
2022/11/26 03:42:02;;;;;;;13.82;5.97;;;;;;;;;;5006485;28;20104;-87
2022/11/26 03:44:54;;;;;;;17.85;7.63;;;;;;;;;;4994018;28;20137;-87
2022/11/26 03:47:22;;;;;;;13.02;6.00;;;;;;;;;;5008816;28;20085;-87
2022/11/26 03:49:54;;;;;;;19.95;7.07;;;;;;;;;;5011777;28;20440;-87
2022/11/26 03:52:52;;;;;;;14.80;6.35;;;;;;;;;;5012875;28;20090;-87
2022/11/26 03:55:20;;;;;;;19.63;7.18;;;;;;;;;;4995060;28;20085;-87
2022/11/26 03:57:53;;;;;;;22.52;7.30;;;;;;;;;;4995395;28;20548;-87
2022/11/26 04:00:26;;;;;;;13.80;7.25;;;;;;;;;;5011737;28;20630;-87
2022/11/26 04:02:54;;;;;;;21.45;7.50;;;;;;;;;;5011152;28;20065;-87
2022/11/26 04:05:22;;;;;;;19.67;7.32;;;;;;;;;;5010730;28;20050;-87
2022/11/26 04:07:50;;;;;;;17.40;7.68;;;;;;;;;;5010706;28;20053;-87
2022/11/26 04:10:47;;;;;;;18.73;7.18;;;;;;;;;;4997848;28;20126;-87
2022/11/26 04:13:13;;;;;;;24.80;7.25;;;;;;;;;;5000570;28;20054;-87
2022/11/26 04:15:42;;;;;;;19.65;8.32;;;;;;;;;;5009843;28;20057;-87
2022/11/26 04:18:14;;;;;;;23.23;7.25;;;;;;;;;;5010792;28;20121;-87
2022/11/26 04:20:42;;;;;;;24.48;8.07;;;;;;;;;;5010266;28;20058;-87
2022/11/26 04:23:10;;;;;;;27.88;9.05;;;;;;;;;;4993972;28;20054;-87
2022/11/26 04:25:38;;;;;;;23.42;8.35;;;;;;;;;;4995065;28;20145;-87
2022/11/26 04:28:30;;;;;;;21.23;7.55;;;;;;;;;;5012359;28;20590;-87
2022/11/26 04:31:22;;;;;;;21.77;8.23;;;;;;;;;;4992199;28;20045;-87
2022/11/26 04:33:50;;;;;;;19.15;8.05;;;;;;;;;;4977483;28;20613;-88
2022/11/26 04:36:18;;;;;;;19.95;6.75;;;;;;;;;;5025728;28;20046;-87
2022/11/26 04:38:46;;;;;;;16.77;7.63;;;;;;;;;;5010382;28;20038;-87
2022/11/26 04:41:14;;;;;;;24.30;7.55;;;;;;;;;;4993990;28;20503;-87
2022/11/26 04:43:43;;;;;;;20.10;7.00;;;;;;;;;;5009115;28;20120;-87
2022/11/26 04:46:16;;;;;;;18.05;7.43;;;;;;;;;;5009645;28;20045;-87
2022/11/26 04:48:44;;;;;;;24.75;6.43;;;;;;;;;;5007804;28;20053;-86
2022/11/26 04:51:36;;;;;;;17.50;6.72;;;;;;;;;;5011568;28;20069;-87
2022/11/26 04:54:30;;;;;;;21.38;6.70;;;;;;;;;;4997072;28;20050;-87
2022/11/26 04:56:58;;;;;;;14.95;6.25;;;;;;;;;;5011599;28;20053;-87
2022/11/26 04:59:30;;;;;;;16.50;7.20;;;;;;;;;;5021975;28;20602;-87
2022/11/26 05:01:58;;;;;;;15.60;6.40;;;;;;;;;;4989546;28;20050;-87
2022/11/26 05:04:32;;;;;;;18.05;6.95;;;;;;;;;;4990024;28;20041;-87
2022/11/26 05:07:00;;;;;;;21.35;7.35;;;;;;;;;;4993073;28;20050;-88
2022/11/26 05:09:54;;;;;;;15.73;6.45;;;;;;;;;;5010439;28;20048;-87
2022/11/26 05:12:26;;;;;;;17.92;6.90;;;;;;;;;;5017357;28;20404;-88
2022/11/26 05:14:53;;;;;;;15.60;6.72;;;;;;;;;;5007046;28;20058;-87
2022/11/26 05:17:46;;;;;;;20.30;6.90;;;;;;;;;;4978861;28;20558;-87
2022/11/26 05:20:18;;;;;;;23.35;7.43;;;;;;;;;;5007907;28;20050;-87
2022/11/26 05:22:50;;;;;;;18.65;7.65;;;;;;;;;;4992835;28;20050;-87
2022/11/26 05:25:42;;;;;;;18.42;7.95;;;;;;;;;;5010368;28;20120;-87
2022/11/26 05:28:10;;;;;;;23.73;7.78;;;;;;;;;;5010543;28;20060;-87
2022/11/26 05:31:03;;;;;;;21.35;7.53;;;;;;;;;;5010447;28;20046;-87
2022/11/26 05:33:55;;;;;;;38.40;8.13;;;;;;;;;;5009391;28;20052;-87
2022/11/26 05:36:54;;;;;;;19.45;7.75;;;;;;;;;;5010949;28;20050;-86
2022/11/26 05:39:26;;;;;;;19.38;7.32;;;;;;;;;;4992295;28;20058;-87
2022/11/26 05:41:54;;;;;;;27.65;8.65;;;;;;;;;;5001147;28;20038;-87
2022/11/26 05:44:22;;;;;;;20.63;7.57;;;;;;;;;;5010374;28;20084;-87
2022/11/26 05:47:16;;;;;;;20.33;8.20;;;;;;;;;;5007034;28;20487;-87
2022/11/26 05:49:44;;;;;;;23.98;8.48;;;;;;;;;;4992854;28;20053;-87
2022/11/26 05:52:16;;;;;;;21.90;9.10;;;;;;;;;;5023708;28;20129;-87
2022/11/26 05:54:47;;;;;;;22.33;7.93;;;;;;;;;;4989814;28;20459;-87
2022/11/26 05:57:17;;;;;;;21.02;7.78;;;;;;;;;;5008574;28;20140;-87
2022/11/26 05:59:44;;;;;;;19.88;7.93;;;;;;;;;;4989390;28;20056;-87
2022/11/26 06:02:12;;;;;;;20.67;8.32;;;;;;;;;;5007193;28;20100;-87
2022/11/26 06:04:39;;;;;;;21.45;8.25;;;;;;;;;;5009513;28;20050;-87
2022/11/26 06:07:14;;;;;;;26.15;8.18;;;;;;;;;;4992445;28;20514;-87
2022/11/26 06:09:42;;;;;;;19.50;8.32;;;;;;;;;;4991633;28;20061;-87
2022/11/26 06:12:19;;;;;;;19.42;7.97;;;;;;;;;;5009354;28;20071;-87
2022/11/26 06:14:52;;;;;;;19.17;7.75;;;;;;;;;;5008686;28;20050;-87
2022/11/26 06:17:20;;;;;;;19.73;8.10;;;;;;;;;;5009204;28;20944;-87
2022/11/26 06:19:48;;;;;;;19.40;8.73;;;;;;;;;;5009034;28;20135;-87
2022/11/26 06:22:16;;;;;;;24.08;8.07;;;;;;;;;;5009403;28;20046;-87
2022/11/26 06:24:48;;;;;;;19.88;8.45;;;;;;;;;;4991240;28;20519;-87
2022/11/26 06:27:19;;;;;;;20.38;8.18;;;;;;;;;;5004955;28;20061;-87
2022/11/26 06:29:47;;;;;;;20.92;8.27;;;;;;;;;;4990922;28;20057;-87
2022/11/26 06:32:16;;;;;;;21.70;8.98;;;;;;;;;;4989640;28;20499;-87
2022/11/26 06:34:44;;;;;;;18.00;8.80;;;;;;;;;;5009867;28;20091;-87
2022/11/26 06:37:18;;;;;;;20.83;7.45;;;;;;;;;;5022799;28;20687;-87
2022/11/26 06:39:46;;;;;;;24.23;8.30;;;;;;;;;;4986228;28;20050;-87
2022/11/26 06:42:14;;;;;;;24.65;8.40;;;;;;;;;;5008395;28;20052;-87
2022/11/26 06:44:42;;;;;;;19.42;8.25;;;;;;;;;;5008194;28;20518;-87
2022/11/26 06:47:11;;;;;;;23.75;9.05;;;;;;;;;;5007882;28;20046;-87
2022/11/26 06:49:44;;;;;;;20.55;7.78;;;;;;;;;;4998537;28;20042;-86
2022/11/26 06:52:36;;;;;;;19.33;7.80;;;;;;;;;;5009630;28;20123;-87
2022/11/26 06:55:28;;;;;;;23.10;8.45;;;;;;;;;;4993482;28;20054;-88
2022/11/26 06:57:56;;;;;;;22.70;8.32;;;;;;;;;;5009402;28;20041;-88
2022/11/26 07:00:24;;;;;;;23.85;8.45;;;;;;;;;;5007023;28;20073;-87
2022/11/26 07:02:52;;;;;;;24.58;8.40;;;;;;;;;;5021885;28;20046;-87
2022/11/26 07:05:20;;;;;;;21.05;8.45;;;;;;;;;;5010970;28;20058;-87
2022/11/26 07:07:48;;;;;;;24.13;8.15;;;;;;;;;;5010056;28;20492;-87
2022/11/26 07:10:20;;;;;;;20.33;8.38;;;;;;;;;;5008050;28;20092;-88
2022/11/26 07:12:48;;;;;;;19.63;8.77;;;;;;;;;;5014618;28;20051;-88
2022/11/26 07:15:40;;;;;;;18.83;8.48;;;;;;;;;;5009246;28;20050;-88
2022/11/26 07:18:08;;;;;;;26.50;8.90;;;;;;;;;;5013069;28;20056;-88
2022/11/26 07:20:36;;;;;;;22.75;9.25;;;;;;;;;;4985525;28;20492;-88
2022/11/26 07:23:10;;;;;;;20.88;8.68;;;;;;;;;;4980972;28;20050;-87
2022/11/26 07:25:40;;;;;;;31.38;9.45;;;;;;;;;;5009219;28;20129;-87
2022/11/26 07:28:08;;;;;;;31.70;9.75;;;;;;;;;;4989988;28;20522;-87
2022/11/26 07:31:04;;;;;;;27.35;8.45;;;;;;;;;;4993630;28;20039;-88
2022/11/26 07:33:32;;;;;;;29.73;9.55;;;;;;;;;;4994917;28;20042;-88
2022/11/26 07:36:01;;;;;;;29.27;10.52;;;;;;;;;;4992032;28;20104;-88
2022/11/26 07:38:30;;;;;;;27.80;10.30;;;;;;;;;;4990964;28;20141;-87
2022/11/26 07:41:03;;;;;;;25.60;9.75;;;;;;;;;;4992998;28;20054;-88
2022/11/26 07:43:39;;;;;;;37.58;10.85;;;;;;;;;;5008877;28;20065;-87
2022/11/26 07:46:08;;;;;;;36.97;11.20;;;;;;;;;;4985846;28;20076;-87
2022/11/26 07:48:38;;;;;;;47.85;12.13;;;;;;;;;;4977632;28;20406;-87
2022/11/26 07:54:13;;;;;;;39.15;12.75;;;;;;;;;;5014472;28;20058;-87
2022/11/26 07:56:42;;;;;;;39.00;12.63;;;;;;;;;;5005602;28;20058;-86
2022/11/26 07:59:10;;;;;;;43.03;12.52;;;;;;;;;;4981591;28;20049;-86
2022/11/26 08:01:38;;;;;;;38.90;12.88;;;;;;;;;;4982916;28;20056;-87
2022/11/26 08:04:06;;;;;;;35.97;12.48;;;;;;;;;;4986957;28;20468;-86
2022/11/26 08:06:34;;;;;;;49.05;13.10;;;;;;;;;;5002997;28;20054;-87
2022/11/26 08:09:02;;;;;;;41.65;13.00;;;;;;;;;;4988415;28;20072;-86
2022/11/26 08:11:32;;;;;;;39.85;14.10;;;;;;;;;;5005185;28;20948;-87
2022/11/26 08:14:03;;;;;;;40.13;13.82;;;;;;;;;;5006543;28;20050;-87
2022/11/26 08:16:30;;;;;;;45.67;14.38;;;;;;;;;;4970165;28;20132;-86
2022/11/26 08:19:01;;;;;;;49.60;15.60;;;;;;;;;;4989972;28;20558;-86
2022/11/26 08:21:34;;;;;;;46.70;13.68;;;;;;;;;;4986653;28;20058;-87
2022/11/26 08:24:14;;;;;;;39.55;14.63;;;;;;;;;;5007833;28;20046;-86
2022/11/26 08:26:48;;;;;;;38.60;12.68;;;;;;;;;;4989919;28;20073;-86
2022/11/26 08:29:16;;;;;;;39.55;13.90;;;;;;;;;;5003791;28;20453;-86
2022/11/26 08:31:44;;;;;;;41.58;13.95;;;;;;;;;;5018602;28;20046;-86
2022/11/26 08:34:36;;;;;;;46.95;14.07;;;;;;;;;;5004803;28;20435;-86
2022/11/26 08:37:10;;;;;;;37.22;12.40;;;;;;;;;;5008675;28;20550;-87
2022/11/26 08:39:38;;;;;;;41.33;13.50;;;;;;;;;;4991614;28;20054;-86
2022/11/26 08:42:06;;;;;;;41.28;13.40;;;;;;;;;;5006400;28;20046;-87
2022/11/26 08:44:34;;;;;;;40.42;12.55;;;;;;;;;;5010846;28;20056;-87
2022/11/26 08:47:08;;;;;;;35.67;13.05;;;;;;;;;;5010493;28;20058;-87
2022/11/26 08:50:00;;;;;;;43.95;13.48;;;;;;;;;;4985431;28;20053;-87
2022/11/26 08:52:32;;;;;;;51.15;12.40;;;;;;;;;;5011845;28;20048;-86
2022/11/26 08:55:04;;;;;;;42.70;13.18;;;;;;;;;;5009650;28;20081;-86
2022/11/26 08:57:36;;;;;;;38.45;14.07;;;;;;;;;;4983432;28;20050;-86
2022/11/26 09:00:08;;;;;;;38.42;13.05;;;;;;;;;;5007854;28;20508;-87
2022/11/26 09:03:02;;;;;;;41.55;13.85;;;;;;;;;;5011505;28;20067;-86
2022/11/26 09:05:30;;;;;;;43.15;12.75;;;;;;;;;;4991684;28;20054;-87
2022/11/26 09:08:02;;;;;;;35.42;12.57;;;;;;;;;;5011045;28;20054;-87
2022/11/26 09:10:56;;;;;;;48.85;13.27;;;;;;;;;;4993939;28;20511;-87
2022/11/26 09:13:24;;;;;;;42.40;13.70;;;;;;;;;;4993258;28;20062;-87
2022/11/26 09:15:56;;;;;;;50.15;15.80;;;;;;;;;;5006129;28;20054;-86
2022/11/26 09:18:24;;;;;;;41.17;14.02;;;;;;;;;;4985679;28;20426;-86
2022/11/26 09:21:01;;;;;;;49.88;14.85;;;;;;;;;;5008971;28;20054;-86
2022/11/26 09:23:28;;;;;;;46.15;15.40;;;;;;;;;;5000403;28;20050;-86
2022/11/26 09:25:56;;;;;;;44.15;13.38;;;;;;;;;;5007155;28;20416;-87
2022/11/26 09:28:24;;;;;;;43.28;14.15;;;;;;;;;;4991233;28;20050;-87
2022/11/26 09:30:59;;;;;;;42.47;13.32;;;;;;;;;;5006568;28;20049;-87
2022/11/26 09:33:28;;;;;;;50.50;14.27;;;;;;;;;;4990999;28;20042;-87
2022/11/26 09:36:07;;;;;;;43.15;14.48;;;;;;;;;;5007878;28;20059;-87
2022/11/26 09:38:34;;;;;;;36.28;12.90;;;;;;;;;;5007835;28;20053;-87
2022/11/26 09:41:11;;;;;;;39.33;12.77;;;;;;;;;;5022121;28;20054;-88
2022/11/26 09:43:48;;;;;;;43.42;13.77;;;;;;;;;;5008686;28;20061;-87
2022/11/26 09:46:27;;;;;;;39.15;12.80;;;;;;;;;;5012473;28;20096;-89
2022/11/26 09:49:13;;;;;;;38.88;13.63;;;;;;;;;;4998574;28;20137;-88
2022/11/26 09:51:43;;;;;;;43.35;14.13;;;;;;;;;;5007183;28;20054;-87
2022/11/26 09:54:19;;;;;;;37.05;13.25;;;;;;;;;;4984705;28;20048;-88
2022/11/26 09:57:26;;;;;;;46.22;15.30;;;;;;;;;;5012991;28;20037;-87
2022/11/26 09:59:54;;;;;;;38.25;13.50;;;;;;;;;;4990543;28;20104;-87
2022/11/26 10:02:51;;;;;;;43.55;14.90;;;;;;;;;;5013304;28;20061;-87
2022/11/26 10:05:19;;;;;;;40.70;14.23;;;;;;;;;;4995325;28;20042;-88
2022/11/26 10:08:15;;;;;;;54.45;15.52;;;;;;;;;;5013611;28;20054;-88
2022/11/26 10:10:55;;;;;;;43.70;14.25;;;;;;;;;;4981898;28;20420;-88
2022/11/26 10:13:56;;;;;;;43.72;15.07;;;;;;;;;;4997546;28;20411;-88
2022/11/26 10:16:29;;;;;;;43.97;15.52;;;;;;;;;;4999530;28;20058;-88
2022/11/26 10:19:59;;;;;;;46.80;15.07;;;;;;;;;;4984366;28;20057;-87
2022/11/26 10:22:31;;;;;;;36.03;13.50;;;;;;;;;;4993624;28;20125;-88
2022/11/26 10:25:28;;;;;;;45.53;13.95;;;;;;;;;;5004458;28;20046;-88
2022/11/26 10:28:12;;;;;;;39.42;14.55;;;;;;;;;;5006082;28;20056;-88
2022/11/26 10:30:40;;;;;;;33.35;14.57;;;;;;;;;;5014456;28;20153;-88
2022/11/26 10:33:14;;;;;;;43.75;15.77;;;;;;;;;;5000609;28;20045;-88
2022/11/26 10:35:43;;;;;;;40.67;14.52;;;;;;;;;;5009184;28;20057;-88
2022/11/26 10:38:12;;;;;;;38.75;16.00;;;;;;;;;;4999293;28;20069;-88
2022/11/26 10:40:40;;;;;;;42.13;15.63;;;;;;;;;;4999255;28;20042;-88
2022/11/26 10:43:39;;;;;;;48.80;15.35;;;;;;;;;;4998098;28;20068;-87
2022/11/26 10:46:30;;;;;;;39.55;14.48;;;;;;;;;;5016161;28;20069;-88
2022/11/26 10:49:25;;;;;;;39.42;14.57;;;;;;;;;;4997044;28;20046;-88
2022/11/26 10:51:59;;;;;;;41.15;15.30;;;;;;;;;;5023349;28;20507;-87
2022/11/26 10:54:33;;;;;;;38.90;15.13;;;;;;;;;;4996005;28;20053;-88
2022/11/26 10:57:06;;;;;;;38.45;15.15;;;;;;;;;;5008467;28;20057;-88
2022/11/26 10:59:43;;;;;;;33.65;12.93;;;;;;;;;;4973775;28;20057;-88
2022/11/26 11:02:33;;;;;;;30.67;12.05;;;;;;;;;;5007838;28;20064;-88
2022/11/26 11:05:27;;;;;;;41.50;13.20;;;;;;;;;;5010816;28;20042;-87
2022/11/26 11:07:59;;;;;;;33.05;12.02;;;;;;;;;;4978445;28;20058;-87
2022/11/26 11:10:28;;;;;;;34.03;13.18;;;;;;;;;;4993567;28;20056;-87
2022/11/26 11:12:59;;;;;;;36.80;12.63;;;;;;;;;;4992315;28;20411;-88
2022/11/26 11:15:29;;;;;;;34.08;12.05;;;;;;;;;;4991812;28;20504;-87
2022/11/26 11:18:02;;;;;;;31.98;12.70;;;;;;;;;;5008893;28;20060;-87
2022/11/26 11:20:31;;;;;;;36.88;12.70;;;;;;;;;;4996484;28;20053;-87
2022/11/26 11:23:06;;;;;;;32.17;12.52;;;;;;;;;;4993614;28;20042;-87
2022/11/26 11:25:35;;;;;;;34.33;13.07;;;;;;;;;;4974003;28;20054;-87
2022/11/26 11:28:14;;;;;;;29.88;12.45;;;;;;;;;;4992498;28;20056;-88
2022/11/26 11:30:43;;;;;;;34.13;12.68;;;;;;;;;;4994731;28;20049;-87
2022/11/26 11:33:36;;;;;;;33.42;13.45;;;;;;;;;;5009341;28;20038;-87
2022/11/26 11:36:13;;;;;;;35.50;12.25;;;;;;;;;;4992899;28;20046;-87
2022/11/26 11:38:46;;;;;;;30.38;11.48;;;;;;;;;;5005967;28;20050;-88
2022/11/26 11:41:45;;;;;;;31.95;12.48;;;;;;;;;;4989900;28;20134;-88
2022/11/26 11:44:24;;;;;;;32.25;11.88;;;;;;;;;;5011431;28;20125;-88
2022/11/26 11:47:46;;;;;;;28.73;10.95;;;;;;;;;;4991377;28;20054;-88
2022/11/26 11:50:36;;;;;;;33.97;11.63;;;;;;;;;;4994529;28;20439;-88
2022/11/26 11:53:33;;;;;;;33.08;12.38;;;;;;;;;;4992510;28;20081;-86
2022/11/26 11:56:12;;;;;;;35.47;12.68;;;;;;;;;;4972967;28;20101;-88
2022/11/26 11:59:15;;;;;;;35.00;13.25;;;;;;;;;;5013725;28;20045;-88
2022/11/26 12:02:12;;;;;;;31.88;13.23;;;;;;;;;;5013084;28;20096;-88
2022/11/26 12:05:41;;;;;;;30.02;12.48;;;;;;;;;;4994801;28;20159;-88
2022/11/26 12:08:16;;;;;;;35.70;11.70;;;;;;;;;;4992982;28;20070;-88
2022/11/26 12:10:56;;;;;;;29.80;12.80;;;;;;;;;;4996054;28;20451;-88
2022/11/26 12:13:25;;;;;;;32.90;12.05;;;;;;;;;;5029818;28;20049;-88
2022/11/26 12:16:03;;;;;;;31.63;11.80;;;;;;;;;;4997908;28;20052;-88
2022/11/26 12:18:52;;;;;;;30.58;11.48;;;;;;;;;;4967216;28;20050;-88
2022/11/26 12:21:52;;;;;;;33.92;12.45;;;;;;;;;;4997758;28;20081;-88
2022/11/26 12:24:46;;;;;;;33.17;12.68;;;;;;;;;;5014974;28;20053;-88
2022/11/26 12:27:22;;;;;;;41.28;13.80;;;;;;;;;;5001123;28;20054;-88
2022/11/26 12:29:56;;;;;;;33.67;12.48;;;;;;;;;;4994999;28;20104;-87
2022/11/26 12:32:33;;;;;;;34.63;12.55;;;;;;;;;;4998501;28;20054;-87
2022/11/26 12:35:28;;;;;;;38.97;12.77;;;;;;;;;;5010576;28;20042;-87
2022/11/26 12:37:59;;;;;;;31.02;12.07;;;;;;;;;;5006957;28;20084;-87
2022/11/26 12:40:34;;;;;;;31.65;13.40;;;;;;;;;;5000732;28;20054;-88
2022/11/26 12:43:43;;;;;;;40.28;11.25;;;;;;;;;;4986539;28;20069;-88
2022/11/26 12:46:18;;;;;;;34.97;13.25;;;;;;;;;;5013294;28;20108;-87
2022/11/26 12:49:12;;;;;;;35.15;11.98;;;;;;;;;;4990421;28;20155;-87
2022/11/26 12:51:48;;;;;;;34.13;11.98;;;;;;;;;;5023080;28;20061;-87
2022/11/26 12:54:29;;;;;;;36.35;13.02;;;;;;;;;;5012019;28;20057;-87
2022/11/26 12:57:22;;;;;;;36.38;12.75;;;;;;;;;;4992113;28;20050;-87
2022/11/26 13:00:05;;;;;;;36.20;12.98;;;;;;;;;;4992181;28;20133;-87
2022/11/26 13:02:42;;;;;;;36.08;13.55;;;;;;;;;;4978657;28;20057;-87
2022/11/26 13:05:18;;;;;;;39.17;11.40;;;;;;;;;;5006855;28;20058;-87
2022/11/26 13:08:31;;;;;;;34.47;12.38;;;;;;;;;;5012486;28;20113;-86
2022/11/26 13:11:35;;;;;;;33.30;12.40;;;;;;;;;;4990728;28;20096;-87
2022/11/26 13:14:15;;;;;;;43.20;12.25;;;;;;;;;;4993417;28;20061;-87
2022/11/26 13:16:47;;;;;;;33.38;11.38;;;;;;;;;;5010697;28;20069;-87
2022/11/26 13:19:26;;;;;;;36.05;12.13;;;;;;;;;;5009607;28;20494;-87
2022/11/26 13:22:35;;;;;;;36.50;12.55;;;;;;;;;;4996699;28;20050;-87
2022/11/26 13:25:54;;;;;;;32.92;11.73;;;;;;;;;;5010233;28;20132;-86
2022/11/26 13:28:37;;;;;;;32.70;13.02;;;;;;;;;;5005930;28;20525;-86
2022/11/26 13:31:12;;;;;;;32.10;12.38;;;;;;;;;;4992498;28;20054;-87
2022/11/26 13:33:49;;;;;;;34.13;13.10;;;;;;;;;;4989506;28;20145;-87
2022/11/26 13:36:36;;;;;;;34.75;13.07;;;;;;;;;;5024162;28;20060;-87
2022/11/26 13:39:56;;;;;;;36.13;13.07;;;;;;;;;;4993868;28;20053;-87
2022/11/26 13:42:48;;;;;;;30.50;12.13;;;;;;;;;;4988050;28;20050;-87
2022/11/26 13:45:31;;;;;;;28.45;11.32;;;;;;;;;;5023160;28;20045;-87
2022/11/26 13:48:15;;;;;;;30.38;11.73;;;;;;;;;;5004128;28;20061;-87
2022/11/26 13:51:00;;;;;;;29.23;10.95;;;;;;;;;;5010977;28;20054;-87
2022/11/26 13:53:40;;;;;;;31.65;12.70;;;;;;;;;;4990845;28;20061;-87
2022/11/26 13:56:09;;;;;;;30.50;12.27;;;;;;;;;;5004970;28;20054;-87
2022/11/26 13:58:43;;;;;;;34.22;11.95;;;;;;;;;;4990346;28;20494;-87
2022/11/26 14:01:34;;;;;;;30.90;12.23;;;;;;;;;;4989524;28;20488;-87
2022/11/26 14:04:27;;;;;;;27.45;11.35;;;;;;;;;;4996641;28;20661;-87
2022/11/26 14:07:05;;;;;;;26.10;11.13;;;;;;;;;;4975376;28;20145;-87
2022/11/26 14:10:00;;;;;;;33.20;12.23;;;;;;;;;;5010315;28;20041;-87
2022/11/26 14:13:18;;;;;;;30.00;11.40;;;;;;;;;;4990264;28;20084;-87
2022/11/26 14:15:51;;;;;;;29.73;11.23;;;;;;;;;;5004448;28;20786;-87
2022/11/26 14:18:54;;;;;;;28.23;10.30;;;;;;;;;;4988400;28;20053;-87
2022/11/26 14:21:29;;;;;;;28.48;10.55;;;;;;;;;;4990590;28;20088;-87
2022/11/26 14:25:04;;;;;;;26.50;10.75;;;;;;;;;;4986814;28;21553;-86
2022/11/26 14:27:37;;;;;;;25.58;10.25;;;;;;;;;;5000951;28;20061;-87
2022/11/26 14:30:18;;;;;;;28.77;10.82;;;;;;;;;;5011948;28;20068;-87
2022/11/26 14:33:11;;;;;;;27.77;10.65;;;;;;;;;;4991297;28;20050;-88
2022/11/26 14:35:39;;;;;;;22.60;10.32;;;;;;;;;;5007122;28;20069;-88
2022/11/26 14:38:24;;;;;;;26.85;10.32;;;;;;;;;;5004799;28;20132;-87
2022/11/26 14:40:57;;;;;;;29.75;11.18;;;;;;;;;;4970302;28;20081;-87
2022/11/26 14:43:27;;;;;;;34.90;11.30;;;;;;;;;;5005548;28;20058;-87
2022/11/26 14:46:04;;;;;;;27.40;11.40;;;;;;;;;;5007593;28;20562;-86
2022/11/26 14:48:57;;;;;;;33.83;10.90;;;;;;;;;;5004887;28;20215;-86
2022/11/26 14:51:33;;;;;;;34.95;12.82;;;;;;;;;;4985426;28;20045;-88
2022/11/26 14:54:00;;;;;;;43.90;13.15;;;;;;;;;;4990205;28;20573;-86
2022/11/26 14:56:28;;;;;;;36.17;13.32;;;;;;;;;;4968035;28;20054;-85
2022/11/26 14:59:00;;;;;;;34.50;12.73;;;;;;;;;;4988174;28;20054;-87
2022/11/26 15:01:29;;;;;;;35.83;12.35;;;;;;;;;;5009968;28;20582;-87
2022/11/26 15:04:03;;;;;;;43.13;13.23;;;;;;;;;;5012214;28;20107;-88
2022/11/26 15:06:37;;;;;;;37.17;12.23;;;;;;;;;;5000192;28;20104;-87
2022/11/26 15:09:11;;;;;;;38.08;13.52;;;;;;;;;;5004649;28;20057;-88
2022/11/26 15:11:42;;;;;;;38.05;12.65;;;;;;;;;;5015082;28;20050;-88
2022/11/26 15:14:43;;;;;;;32.67;12.02;;;;;;;;;;5010319;28;20053;-88
2022/11/26 15:17:19;;;;;;;32.40;12.57;;;;;;;;;;4977238;28;20058;-88
2022/11/26 15:19:46;;;;;;;35.20;12.05;;;;;;;;;;4992245;28;20112;-89
2022/11/26 15:22:47;;;;;;;33.97;12.68;;;;;;;;;;4994791;28;20096;-88
2022/11/26 15:25:20;;;;;;;35.20;12.38;;;;;;;;;;5006561;28;20518;-90
2022/11/26 15:28:15;;;;;;;33.97;12.98;;;;;;;;;;4992809;28;20065;-91
2022/11/26 15:30:53;;;;;;;33.67;12.13;;;;;;;;;;4976382;28;20045;-90